sensor_id;sensor_type;location;lat;lon;timestamp;P1;durP1;ratioP1;P2;durP2;ratioP2
61017;SDS011;48171;51.550;5.434;2022-10-28T00:01:19;21.33;;;9.80;;
61017;SDS011;48171;51.550;5.434;2022-10-28T00:03:47;21.80;;;11.32;;
61017;SDS011;48171;51.550;5.434;2022-10-28T00:08:50;23.88;;;10.15;;
61017;SDS011;48171;51.550;5.434;2022-10-28T00:11:16;20.73;;;9.63;;
61017;SDS011;48171;51.550;5.434;2022-10-28T00:13:49;19.50;;;9.38;;
61017;SDS011;48171;51.550;5.434;2022-10-28T00:16:18;17.92;;;9.38;;
61017;SDS011;48171;51.550;5.434;2022-10-28T00:18:46;20.77;;;10.02;;
61017;SDS011;48171;51.550;5.434;2022-10-28T00:21:14;17.92;;;9.50;;
61017;SDS011;48171;51.550;5.434;2022-10-28T00:23:43;17.63;;;9.02;;
61017;SDS011;48171;51.550;5.434;2022-10-28T00:28:47;20.70;;;10.38;;
61017;SDS011;48171;51.550;5.434;2022-10-28T00:31:15;22.25;;;10.90;;
61017;SDS011;48171;51.550;5.434;2022-10-28T00:33:42;21.75;;;10.75;;
61017;SDS011;48171;51.550;5.434;2022-10-28T00:38:47;19.80;;;10.65;;
61017;SDS011;48171;51.550;5.434;2022-10-28T00:41:16;23.10;;;10.70;;
61017;SDS011;48171;51.550;5.434;2022-10-28T00:49:09;26.40;;;11.07;;
61017;SDS011;48171;51.550;5.434;2022-10-28T00:51:39;22.00;;;10.50;;
61017;SDS011;48171;51.550;5.434;2022-10-28T00:54:06;20.75;;;9.82;;
61017;SDS011;48171;51.550;5.434;2022-10-28T00:56:37;18.83;;;10.00;;
61017;SDS011;48171;51.550;5.434;2022-10-28T00:59:07;19.17;;;10.10;;
61017;SDS011;48171;51.550;5.434;2022-10-28T01:01:43;25.45;;;10.98;;
61017;SDS011;48171;51.550;5.434;2022-10-28T01:04:09;21.33;;;9.90;;
61017;SDS011;48171;51.550;5.434;2022-10-28T01:06:35;23.52;;;10.50;;
61017;SDS011;48171;51.550;5.434;2022-10-28T01:09:01;18.63;;;9.43;;
61017;SDS011;48171;51.550;5.434;2022-10-28T01:20:11;19.15;;;9.40;;
61017;SDS011;48171;51.550;5.434;2022-10-28T01:23:09;20.63;;;9.90;;
61017;SDS011;48171;51.550;5.434;2022-10-28T01:25:57;22.90;;;9.80;;
61017;SDS011;48171;51.550;5.434;2022-10-28T01:37:03;23.67;;;10.13;;
61017;SDS011;48171;51.550;5.434;2022-10-28T01:45:00;25.80;;;10.60;;
61017;SDS011;48171;51.550;5.434;2022-10-28T01:47:34;26.52;;;10.80;;
61017;SDS011;48171;51.550;5.434;2022-10-28T01:53:03;23.38;;;10.70;;
61017;SDS011;48171;51.550;5.434;2022-10-28T01:55:37;26.05;;;11.05;;
61017;SDS011;48171;51.550;5.434;2022-10-28T01:58:05;21.58;;;10.10;;
61017;SDS011;48171;51.550;5.434;2022-10-28T02:00:33;23.13;;;11.23;;
61017;SDS011;48171;51.550;5.434;2022-10-28T02:03:01;21.75;;;10.15;;
61017;SDS011;48171;51.550;5.434;2022-10-28T02:11:29;21.77;;;9.70;;
61017;SDS011;48171;51.550;5.434;2022-10-28T02:22:19;20.25;;;9.38;;
61017;SDS011;48171;51.550;5.434;2022-10-28T02:25:08;22.17;;;9.88;;
61017;SDS011;48171;51.550;5.434;2022-10-28T02:27:58;19.10;;;8.95;;
61017;SDS011;48171;51.550;5.434;2022-10-28T02:30:46;19.88;;;8.88;;
61017;SDS011;48171;51.550;5.434;2022-10-28T02:33:17;21.23;;;9.25;;
61017;SDS011;48171;51.550;5.434;2022-10-28T02:38:21;19.17;;;9.43;;
61017;SDS011;48171;51.550;5.434;2022-10-28T02:40:52;16.67;;;9.07;;
61017;SDS011;48171;51.550;5.434;2022-10-28T02:43:23;22.55;;;9.38;;
61017;SDS011;48171;51.550;5.434;2022-10-28T02:45:50;24.58;;;9.68;;
61017;SDS011;48171;51.550;5.434;2022-10-28T02:48:25;18.40;;;8.70;;
61017;SDS011;48171;51.550;5.434;2022-10-28T02:50:57;20.42;;;9.95;;
61017;SDS011;48171;51.550;5.434;2022-10-28T02:53:32;21.63;;;9.00;;
61017;SDS011;48171;51.550;5.434;2022-10-28T02:56:08;18.20;;;8.43;;
61017;SDS011;48171;51.550;5.434;2022-10-28T02:58:38;25.48;;;8.93;;
61017;SDS011;48171;51.550;5.434;2022-10-28T03:01:04;23.67;;;10.07;;
61017;SDS011;48171;51.550;5.434;2022-10-28T03:03:30;18.88;;;9.13;;
61017;SDS011;48171;51.550;5.434;2022-10-28T03:05:56;16.38;;;8.70;;
61017;SDS011;48171;51.550;5.434;2022-10-28T03:08:21;18.95;;;8.95;;
61017;SDS011;48171;51.550;5.434;2022-10-28T03:10:49;22.58;;;8.02;;
61017;SDS011;48171;51.550;5.434;2022-10-28T03:13:14;17.58;;;7.82;;
61017;SDS011;48171;51.550;5.434;2022-10-28T03:15:39;22.42;;;8.98;;
61017;SDS011;48171;51.550;5.434;2022-10-28T03:18:05;20.00;;;8.88;;
61017;SDS011;48171;51.550;5.434;2022-10-28T03:20:30;22.80;;;9.18;;
61017;SDS011;48171;51.550;5.434;2022-10-28T03:22:55;16.02;;;8.07;;
61017;SDS011;48171;51.550;5.434;2022-10-28T03:25:21;17.52;;;8.00;;
61017;SDS011;48171;51.550;5.434;2022-10-28T03:27:46;18.25;;;7.75;;
61017;SDS011;48171;51.550;5.434;2022-10-28T03:30:11;18.08;;;8.25;;
61017;SDS011;48171;51.550;5.434;2022-10-28T03:32:39;18.48;;;8.20;;
61017;SDS011;48171;51.550;5.434;2022-10-28T03:35:06;22.75;;;8.90;;
61017;SDS011;48171;51.550;5.434;2022-10-28T03:37:31;19.33;;;8.27;;
61017;SDS011;48171;51.550;5.434;2022-10-28T03:39:56;18.88;;;7.72;;
61017;SDS011;48171;51.550;5.434;2022-10-28T03:42:25;16.35;;;7.70;;
61017;SDS011;48171;51.550;5.434;2022-10-28T03:44:50;17.55;;;8.30;;
61017;SDS011;48171;51.550;5.434;2022-10-28T03:47:15;18.38;;;8.63;;
61017;SDS011;48171;51.550;5.434;2022-10-28T03:49:40;20.20;;;8.20;;
61017;SDS011;48171;51.550;5.434;2022-10-28T03:52:06;15.82;;;8.10;;
61017;SDS011;48171;51.550;5.434;2022-10-28T03:54:31;20.80;;;8.20;;
61017;SDS011;48171;51.550;5.434;2022-10-28T03:56:56;19.25;;;8.52;;
61017;SDS011;48171;51.550;5.434;2022-10-28T03:59:21;22.27;;;7.80;;
61017;SDS011;48171;51.550;5.434;2022-10-28T04:01:47;17.92;;;7.80;;
61017;SDS011;48171;51.550;5.434;2022-10-28T04:04:12;20.25;;;7.75;;
61017;SDS011;48171;51.550;5.434;2022-10-28T04:06:37;17.00;;;7.47;;
61017;SDS011;48171;51.550;5.434;2022-10-28T04:09:02;20.33;;;7.78;;
61017;SDS011;48171;51.550;5.434;2022-10-28T04:11:28;21.48;;;8.20;;
61017;SDS011;48171;51.550;5.434;2022-10-28T04:13:53;16.77;;;7.47;;
61017;SDS011;48171;51.550;5.434;2022-10-28T04:16:18;15.70;;;7.63;;
61017;SDS011;48171;51.550;5.434;2022-10-28T04:18:43;18.85;;;7.82;;
61017;SDS011;48171;51.550;5.434;2022-10-28T04:21:09;19.73;;;7.45;;
61017;SDS011;48171;51.550;5.434;2022-10-28T04:23:34;24.55;;;8.90;;
61017;SDS011;48171;51.550;5.434;2022-10-28T04:25:59;14.52;;;7.30;;
61017;SDS011;48171;51.550;5.434;2022-10-28T04:28:24;23.23;;;8.68;;
61017;SDS011;48171;51.550;5.434;2022-10-28T04:30:50;17.45;;;7.60;;
61017;SDS011;48171;51.550;5.434;2022-10-28T04:33:15;18.15;;;7.45;;
61017;SDS011;48171;51.550;5.434;2022-10-28T04:35:41;16.63;;;7.88;;
61017;SDS011;48171;51.550;5.434;2022-10-28T04:38:09;18.40;;;7.47;;
61017;SDS011;48171;51.550;5.434;2022-10-28T04:40:35;19.05;;;7.68;;
61017;SDS011;48171;51.550;5.434;2022-10-28T04:43:01;20.10;;;7.63;;
61017;SDS011;48171;51.550;5.434;2022-10-28T04:45:26;19.25;;;7.40;;
61017;SDS011;48171;51.550;5.434;2022-10-28T04:47:58;17.85;;;7.50;;
61017;SDS011;48171;51.550;5.434;2022-10-28T04:50:24;16.15;;;7.57;;
61017;SDS011;48171;51.550;5.434;2022-10-28T04:52:50;21.48;;;7.60;;
61017;SDS011;48171;51.550;5.434;2022-10-28T04:55:15;21.38;;;7.85;;
61017;SDS011;48171;51.550;5.434;2022-10-28T04:57:41;18.35;;;6.85;;
61017;SDS011;48171;51.550;5.434;2022-10-28T05:00:06;20.65;;;7.15;;
61017;SDS011;48171;51.550;5.434;2022-10-28T05:02:32;17.35;;;6.55;;
61017;SDS011;48171;51.550;5.434;2022-10-28T05:04:57;19.55;;;6.93;;
61017;SDS011;48171;51.550;5.434;2022-10-28T05:07:26;18.95;;;6.80;;
61017;SDS011;48171;51.550;5.434;2022-10-28T05:09:51;16.75;;;6.88;;
61017;SDS011;48171;51.550;5.434;2022-10-28T05:12:16;17.25;;;7.00;;
61017;SDS011;48171;51.550;5.434;2022-10-28T05:14:42;19.25;;;6.53;;
61017;SDS011;48171;51.550;5.434;2022-10-28T05:17:07;18.65;;;6.70;;
61017;SDS011;48171;51.550;5.434;2022-10-28T05:19:34;15.40;;;6.57;;
61017;SDS011;48171;51.550;5.434;2022-10-28T05:21:59;22.63;;;6.95;;
61017;SDS011;48171;51.550;5.434;2022-10-28T05:24:24;20.45;;;6.93;;
61017;SDS011;48171;51.550;5.434;2022-10-28T05:26:50;21.83;;;6.82;;
61017;SDS011;48171;51.550;5.434;2022-10-28T05:29:15;17.38;;;6.38;;
61017;SDS011;48171;51.550;5.434;2022-10-28T05:31:42;17.40;;;6.88;;
61017;SDS011;48171;51.550;5.434;2022-10-28T05:34:07;16.40;;;7.13;;
61017;SDS011;48171;51.550;5.434;2022-10-28T05:36:32;14.88;;;7.00;;
61017;SDS011;48171;51.550;5.434;2022-10-28T05:38:58;19.05;;;7.53;;
61017;SDS011;48171;51.550;5.434;2022-10-28T05:41:23;15.13;;;6.45;;
61017;SDS011;48171;51.550;5.434;2022-10-28T05:43:49;17.17;;;6.78;;
61017;SDS011;48171;51.550;5.434;2022-10-28T05:46:15;18.42;;;7.13;;
61017;SDS011;48171;51.550;5.434;2022-10-28T05:48:40;18.00;;;7.07;;
61017;SDS011;48171;51.550;5.434;2022-10-28T05:51:05;18.70;;;7.15;;
61017;SDS011;48171;51.550;5.434;2022-10-28T05:53:30;23.45;;;7.25;;
61017;SDS011;48171;51.550;5.434;2022-10-28T05:55:56;18.65;;;7.07;;
61017;SDS011;48171;51.550;5.434;2022-10-28T05:58:21;16.60;;;6.60;;
61017;SDS011;48171;51.550;5.434;2022-10-28T06:00:46;22.70;;;7.05;;
61017;SDS011;48171;51.550;5.434;2022-10-28T06:03:11;21.25;;;7.07;;
61017;SDS011;48171;51.550;5.434;2022-10-28T06:05:38;22.45;;;7.50;;
61017;SDS011;48171;51.550;5.434;2022-10-28T06:08:05;15.85;;;6.75;;
61017;SDS011;48171;51.550;5.434;2022-10-28T06:10:31;16.05;;;6.68;;
61017;SDS011;48171;51.550;5.434;2022-10-28T06:12:57;18.45;;;6.55;;
61017;SDS011;48171;51.550;5.434;2022-10-28T06:15:22;16.33;;;6.32;;
61017;SDS011;48171;51.550;5.434;2022-10-28T06:17:48;18.75;;;7.38;;
61017;SDS011;48171;51.550;5.434;2022-10-28T06:20:14;19.85;;;7.00;;
61017;SDS011;48171;51.550;5.434;2022-10-28T06:22:46;22.52;;;7.45;;
61017;SDS011;48171;51.550;5.434;2022-10-28T06:25:13;18.33;;;7.43;;
61017;SDS011;48171;51.550;5.434;2022-10-28T06:27:38;25.17;;;7.65;;
61017;SDS011;48171;51.550;5.434;2022-10-28T06:30:04;13.95;;;6.95;;
61017;SDS011;48171;51.550;5.434;2022-10-28T06:32:29;16.17;;;6.80;;
61017;SDS011;48171;51.550;5.434;2022-10-28T06:34:55;23.42;;;7.63;;
61017;SDS011;48171;51.550;5.434;2022-10-28T06:37:20;20.00;;;6.97;;
61017;SDS011;48171;51.550;5.434;2022-10-28T06:39:45;24.00;;;7.50;;
61017;SDS011;48171;51.550;5.434;2022-10-28T06:42:15;16.92;;;7.20;;
61017;SDS011;48171;51.550;5.434;2022-10-28T06:44:40;15.73;;;6.95;;
61017;SDS011;48171;51.550;5.434;2022-10-28T06:47:05;19.33;;;6.47;;
61017;SDS011;48171;51.550;5.434;2022-10-28T06:49:31;19.05;;;6.97;;
61017;SDS011;48171;51.550;5.434;2022-10-28T06:51:56;20.80;;;7.20;;
61017;SDS011;48171;51.550;5.434;2022-10-28T06:54:21;17.50;;;7.38;;
61017;SDS011;48171;51.550;5.434;2022-10-28T06:56:46;22.65;;;7.00;;
61017;SDS011;48171;51.550;5.434;2022-10-28T06:59:12;18.00;;;7.63;;
61017;SDS011;48171;51.550;5.434;2022-10-28T07:01:37;16.60;;;7.72;;
61017;SDS011;48171;51.550;5.434;2022-10-28T07:04:02;17.88;;;7.50;;
61017;SDS011;48171;51.550;5.434;2022-10-28T07:06:27;20.23;;;7.07;;
61017;SDS011;48171;51.550;5.434;2022-10-28T07:08:53;20.70;;;8.07;;
61017;SDS011;48171;51.550;5.434;2022-10-28T07:11:18;17.70;;;7.38;;
61017;SDS011;48171;51.550;5.434;2022-10-28T07:13:43;19.15;;;7.18;;
61017;SDS011;48171;51.550;5.434;2022-10-28T07:16:09;20.63;;;7.75;;
61017;SDS011;48171;51.550;5.434;2022-10-28T07:18:34;18.67;;;6.97;;
61017;SDS011;48171;51.550;5.434;2022-10-28T07:20:59;19.52;;;7.85;;
61017;SDS011;48171;51.550;5.434;2022-10-28T07:23:26;23.48;;;7.45;;
61017;SDS011;48171;51.550;5.434;2022-10-28T07:25:52;22.10;;;7.70;;
61017;SDS011;48171;51.550;5.434;2022-10-28T07:28:19;20.88;;;8.38;;
61017;SDS011;48171;51.550;5.434;2022-10-28T07:30:45;22.02;;;7.68;;
61017;SDS011;48171;51.550;5.434;2022-10-28T07:33:10;21.02;;;8.55;;
61017;SDS011;48171;51.550;5.434;2022-10-28T07:35:35;22.80;;;8.05;;
61017;SDS011;48171;51.550;5.434;2022-10-28T07:38:01;23.02;;;8.63;;
61017;SDS011;48171;51.550;5.434;2022-10-28T07:40:26;25.23;;;8.55;;
61017;SDS011;48171;51.550;5.434;2022-10-28T07:42:51;25.83;;;8.35;;
61017;SDS011;48171;51.550;5.434;2022-10-28T07:45:17;24.83;;;8.50;;
61017;SDS011;48171;51.550;5.434;2022-10-28T07:47:42;23.45;;;8.05;;
61017;SDS011;48171;51.550;5.434;2022-10-28T07:50:09;19.13;;;7.90;;
61017;SDS011;48171;51.550;5.434;2022-10-28T07:52:35;25.50;;;8.43;;
61017;SDS011;48171;51.550;5.434;2022-10-28T07:55:01;20.55;;;7.75;;
61017;SDS011;48171;51.550;5.434;2022-10-28T07:57:27;25.85;;;8.27;;
61017;SDS011;48171;51.550;5.434;2022-10-28T07:59:53;24.55;;;8.30;;
61017;SDS011;48171;51.550;5.434;2022-10-28T08:02:20;21.42;;;8.18;;
61017;SDS011;48171;51.550;5.434;2022-10-28T08:04:46;18.95;;;8.13;;
61017;SDS011;48171;51.550;5.434;2022-10-28T08:07:12;20.92;;;8.45;;
61017;SDS011;48171;51.550;5.434;2022-10-28T08:09:38;22.02;;;8.32;;
61017;SDS011;48171;51.550;5.434;2022-10-28T08:12:04;24.10;;;8.27;;
61017;SDS011;48171;51.550;5.434;2022-10-28T08:14:30;19.33;;;7.35;;
61017;SDS011;48171;51.550;5.434;2022-10-28T08:16:56;22.85;;;8.07;;
61017;SDS011;48171;51.550;5.434;2022-10-28T08:19:21;25.50;;;7.53;;
61017;SDS011;48171;51.550;5.434;2022-10-28T08:21:46;20.45;;;7.95;;
61017;SDS011;48171;51.550;5.434;2022-10-28T08:24:12;25.10;;;7.35;;
61017;SDS011;48171;51.550;5.434;2022-10-28T08:26:37;22.23;;;7.72;;
61017;SDS011;48171;51.550;5.434;2022-10-28T08:29:02;18.50;;;7.50;;
61017;SDS011;48171;51.550;5.434;2022-10-28T08:31:27;23.02;;;7.88;;
61017;SDS011;48171;51.550;5.434;2022-10-28T08:33:53;25.38;;;8.02;;
61017;SDS011;48171;51.550;5.434;2022-10-28T08:36:18;20.33;;;7.20;;
61017;SDS011;48171;51.550;5.434;2022-10-28T08:38:44;20.13;;;7.20;;
61017;SDS011;48171;51.550;5.434;2022-10-28T08:41:13;23.92;;;8.07;;
61017;SDS011;48171;51.550;5.434;2022-10-28T08:50:01;22.13;;;7.97;;
61017;SDS011;48171;51.550;5.434;2022-10-28T08:55:29;20.38;;;7.50;;
61017;SDS011;48171;51.550;5.434;2022-10-28T08:57:57;19.40;;;7.00;;
61017;SDS011;48171;51.550;5.434;2022-10-28T09:00:30;23.75;;;7.35;;
61017;SDS011;48171;51.550;5.434;2022-10-28T09:03:04;24.80;;;8.18;;
61017;SDS011;48171;51.550;5.434;2022-10-28T09:05:38;19.58;;;7.05;;
61017;SDS011;48171;51.550;5.434;2022-10-28T09:08:08;20.35;;;7.90;;
61017;SDS011;48171;51.550;5.434;2022-10-28T09:11:29;21.83;;;7.72;;
61017;SDS011;48171;51.550;5.434;2022-10-28T09:13:36;19.08;;;7.85;;
61017;SDS011;48171;51.550;5.434;2022-10-28T09:16:14;21.75;;;7.95;;
61017;SDS011;48171;51.550;5.434;2022-10-28T09:21:22;19.77;;;7.07;;
61017;SDS011;48171;51.550;5.434;2022-10-28T09:23:56;23.67;;;7.40;;
61017;SDS011;48171;51.550;5.434;2022-10-28T09:26:26;20.92;;;7.38;;
61017;SDS011;48171;51.550;5.434;2022-10-28T09:31:32;24.42;;;7.03;;
61017;SDS011;48171;51.550;5.434;2022-10-28T09:36:57;22.60;;;7.25;;
61017;SDS011;48171;51.550;5.434;2022-10-28T09:39:29;17.83;;;7.05;;
61017;SDS011;48171;51.550;5.434;2022-10-28T09:42:01;16.63;;;6.63;;
61017;SDS011;48171;51.550;5.434;2022-10-28T09:47:14;17.63;;;7.40;;
61017;SDS011;48171;51.550;5.434;2022-10-28T09:49:43;21.90;;;7.15;;
61017;SDS011;48171;51.550;5.434;2022-10-28T09:52:18;21.65;;;6.93;;
61017;SDS011;48171;51.550;5.434;2022-10-28T09:54:54;21.58;;;7.60;;
61017;SDS011;48171;51.550;5.434;2022-10-28T09:57:23;20.90;;;6.78;;
61017;SDS011;48171;51.550;5.434;2022-10-28T09:59:54;16.02;;;6.15;;
61017;SDS011;48171;51.550;5.434;2022-10-28T10:04:56;25.15;;;7.00;;
61017;SDS011;48171;51.550;5.434;2022-10-28T10:10:13;23.10;;;7.00;;
61017;SDS011;48171;51.550;5.434;2022-10-28T10:12:43;16.75;;;6.82;;
61017;SDS011;48171;51.550;5.434;2022-10-28T10:15:13;15.30;;;6.25;;
61017;SDS011;48171;51.550;5.434;2022-10-28T10:17:51;21.20;;;7.00;;
61017;SDS011;48171;51.550;5.434;2022-10-28T10:20:18;22.60;;;7.22;;
61017;SDS011;48171;51.550;5.434;2022-10-28T10:22:45;21.08;;;6.78;;
61017;SDS011;48171;51.550;5.434;2022-10-28T10:27:50;22.38;;;6.90;;
61017;SDS011;48171;51.550;5.434;2022-10-28T10:30:29;19.40;;;6.25;;
61017;SDS011;48171;51.550;5.434;2022-10-28T10:32:57;21.08;;;7.07;;
61017;SDS011;48171;51.550;5.434;2022-10-28T10:35:24;18.77;;;6.47;;
61017;SDS011;48171;51.550;5.434;2022-10-28T10:37:52;18.45;;;7.00;;
61017;SDS011;48171;51.550;5.434;2022-10-28T10:48:24;19.42;;;6.63;;
61017;SDS011;48171;51.550;5.434;2022-10-28T10:50:51;14.48;;;6.00;;
61017;SDS011;48171;51.550;5.434;2022-10-28T10:53:27;19.02;;;5.97;;
61017;SDS011;48171;51.550;5.434;2022-10-28T10:55:56;24.75;;;6.35;;
61017;SDS011;48171;51.550;5.434;2022-10-28T10:58:25;17.35;;;6.25;;
61017;SDS011;48171;51.550;5.434;2022-10-28T11:00:54;21.83;;;6.68;;
61017;SDS011;48171;51.550;5.434;2022-10-28T11:03:33;18.35;;;5.38;;
61017;SDS011;48171;51.550;5.434;2022-10-28T11:06:03;18.77;;;6.35;;
61017;SDS011;48171;51.550;5.434;2022-10-28T11:08:35;27.05;;;6.78;;
61017;SDS011;48171;51.550;5.434;2022-10-28T11:13:37;18.95;;;5.70;;
61017;SDS011;48171;51.550;5.434;2022-10-28T11:16:15;23.55;;;5.85;;
61017;SDS011;48171;51.550;5.434;2022-10-28T11:18:43;21.92;;;6.43;;
61017;SDS011;48171;51.550;5.434;2022-10-28T11:29:52;16.15;;;5.45;;
61017;SDS011;48171;51.550;5.434;2022-10-28T11:32:35;22.52;;;6.45;;
61017;SDS011;48171;51.550;5.434;2022-10-28T11:37:58;18.88;;;5.30;;
61017;SDS011;48171;51.550;5.434;2022-10-28T11:40:30;20.70;;;5.25;;
61017;SDS011;48171;51.550;5.434;2022-10-28T11:51:53;21.88;;;5.93;;
61017;SDS011;48171;51.550;5.434;2022-10-28T11:57:00;14.73;;;5.53;;
61017;SDS011;48171;51.550;5.434;2022-10-28T12:02:15;15.38;;;5.32;;
61017;SDS011;48171;51.550;5.434;2022-10-28T12:12:55;21.30;;;6.10;;
61017;SDS011;48171;51.550;5.434;2022-10-28T12:15:49;19.30;;;5.68;;
61017;SDS011;48171;51.550;5.434;2022-10-28T12:23:59;20.15;;;5.57;;
61017;SDS011;48171;51.550;5.434;2022-10-28T12:26:33;25.58;;;6.30;;
61017;SDS011;48171;51.550;5.434;2022-10-28T12:29:00;21.15;;;6.22;;
61017;SDS011;48171;51.550;5.434;2022-10-28T12:31:29;17.00;;;5.75;;
61017;SDS011;48171;51.550;5.434;2022-10-28T12:33:59;22.42;;;6.43;;
61017;SDS011;48171;51.550;5.434;2022-10-28T12:39:24;18.23;;;5.70;;
61017;SDS011;48171;51.550;5.434;2022-10-28T12:42:03;17.58;;;5.32;;
61017;SDS011;48171;51.550;5.434;2022-10-28T12:44:36;17.55;;;6.20;;
61017;SDS011;48171;51.550;5.434;2022-10-28T12:58:14;19.40;;;6.60;;
61017;SDS011;48171;51.550;5.434;2022-10-28T13:00:44;19.30;;;6.13;;
61017;SDS011;48171;51.550;5.434;2022-10-28T13:03:13;24.38;;;6.10;;
61017;SDS011;48171;51.550;5.434;2022-10-28T13:05:47;23.63;;;6.78;;
61017;SDS011;48171;51.550;5.434;2022-10-28T13:14:05;16.23;;;5.93;;
61017;SDS011;48171;51.550;5.434;2022-10-28T13:19:48;22.23;;;6.03;;
61017;SDS011;48171;51.550;5.434;2022-10-28T13:27:44;25.55;;;6.43;;
61017;SDS011;48171;51.550;5.434;2022-10-28T13:30:13;22.00;;;5.70;;
61017;SDS011;48171;51.550;5.434;2022-10-28T13:32:41;22.45;;;6.00;;
61017;SDS011;48171;51.550;5.434;2022-10-28T13:35:15;18.67;;;5.78;;
61017;SDS011;48171;51.550;5.434;2022-10-28T13:37:46;20.08;;;5.97;;
61017;SDS011;48171;51.550;5.434;2022-10-28T13:42:48;18.67;;;5.93;;
61017;SDS011;48171;51.550;5.434;2022-10-28T13:51:06;14.55;;;6.15;;
61017;SDS011;48171;51.550;5.434;2022-10-28T13:58:39;15.63;;;5.45;;
61017;SDS011;48171;51.550;5.434;2022-10-28T14:04:19;21.00;;;5.57;;
61017;SDS011;48171;51.550;5.434;2022-10-28T14:07:15;24.33;;;5.60;;
61017;SDS011;48171;51.550;5.434;2022-10-28T14:09:45;20.70;;;5.70;;
61017;SDS011;48171;51.550;5.434;2022-10-28T14:12:26;22.52;;;6.10;;
61017;SDS011;48171;51.550;5.434;2022-10-28T14:14:55;17.10;;;5.50;;
61017;SDS011;48171;51.550;5.434;2022-10-28T14:17:25;21.67;;;6.22;;
61017;SDS011;48171;51.550;5.434;2022-10-28T14:19:58;16.92;;;5.60;;
61017;SDS011;48171;51.550;5.434;2022-10-28T14:22:32;18.83;;;5.78;;
61017;SDS011;48171;51.550;5.434;2022-10-28T14:24:59;14.18;;;5.63;;
61017;SDS011;48171;51.550;5.434;2022-10-28T14:27:29;15.85;;;5.22;;
61017;SDS011;48171;51.550;5.434;2022-10-28T14:30:11;21.73;;;5.60;;
61017;SDS011;48171;51.550;5.434;2022-10-28T14:45:40;21.30;;;5.38;;
61017;SDS011;48171;51.550;5.434;2022-10-28T14:50:44;17.13;;;5.53;;
61017;SDS011;48171;51.550;5.434;2022-10-28T14:53:33;14.82;;;5.38;;
61017;SDS011;48171;51.550;5.434;2022-10-28T14:56:08;20.38;;;5.25;;
61017;SDS011;48171;51.550;5.434;2022-10-28T14:58:41;14.45;;;4.93;;
61017;SDS011;48171;51.550;5.434;2022-10-28T15:01:19;19.05;;;4.90;;
61017;SDS011;48171;51.550;5.434;2022-10-28T15:04:10;13.23;;;4.93;;
61017;SDS011;48171;51.550;5.434;2022-10-28T15:06:39;17.50;;;5.00;;
61017;SDS011;48171;51.550;5.434;2022-10-28T15:09:15;22.42;;;5.85;;
61017;SDS011;48171;51.550;5.434;2022-10-28T15:11:41;22.40;;;5.97;;
61017;SDS011;48171;51.550;5.434;2022-10-28T15:14:53;14.25;;;5.18;;
61017;SDS011;48171;51.550;5.434;2022-10-28T15:19:43;15.85;;;5.22;;
61017;SDS011;48171;51.550;5.434;2022-10-28T15:22:14;14.18;;;5.00;;
61017;SDS011;48171;51.550;5.434;2022-10-28T15:24:50;17.73;;;5.65;;
61017;SDS011;48171;51.550;5.434;2022-10-28T15:27:36;14.65;;;4.80;;
61017;SDS011;48171;51.550;5.434;2022-10-28T15:30:03;21.33;;;5.50;;
61017;SDS011;48171;51.550;5.434;2022-10-28T15:32:38;13.05;;;4.78;;
61017;SDS011;48171;51.550;5.434;2022-10-28T15:37:50;17.73;;;5.30;;
61017;SDS011;48171;51.550;5.434;2022-10-28T15:40:30;19.85;;;5.70;;
61017;SDS011;48171;51.550;5.434;2022-10-28T15:42:57;21.63;;;5.00;;
61017;SDS011;48171;51.550;5.434;2022-10-28T15:45:28;14.80;;;5.57;;
61017;SDS011;48171;51.550;5.434;2022-10-28T15:47:56;20.00;;;5.45;;
61017;SDS011;48171;51.550;5.434;2022-10-28T15:50:35;12.10;;;5.63;;
61017;SDS011;48171;51.550;5.434;2022-10-28T15:55:35;14.65;;;5.22;;
61017;SDS011;48171;51.550;5.434;2022-10-28T16:01:25;15.93;;;5.45;;
61017;SDS011;48171;51.550;5.434;2022-10-28T16:06:21;19.25;;;5.78;;
61017;SDS011;48171;51.550;5.434;2022-10-28T16:08:59;15.07;;;5.97;;
61017;SDS011;48171;51.550;5.434;2022-10-28T16:11:28;17.27;;;5.72;;
61017;SDS011;48171;51.550;5.434;2022-10-28T16:13:54;14.80;;;5.55;;
61017;SDS011;48171;51.550;5.434;2022-10-28T16:16:24;22.30;;;5.20;;
61017;SDS011;48171;51.550;5.434;2022-10-28T16:18:59;14.13;;;5.03;;
61017;SDS011;48171;51.550;5.434;2022-10-28T16:21:33;15.20;;;5.20;;
61017;SDS011;48171;51.550;5.434;2022-10-28T16:23:59;22.35;;;5.40;;
61017;SDS011;48171;51.550;5.434;2022-10-28T16:26:27;19.73;;;6.18;;
61017;SDS011;48171;51.550;5.434;2022-10-28T16:28:54;19.05;;;5.72;;
61017;SDS011;48171;51.550;5.434;2022-10-28T16:31:20;16.10;;;5.57;;
61017;SDS011;48171;51.550;5.434;2022-10-28T16:33:47;16.50;;;5.47;;
61017;SDS011;48171;51.550;5.434;2022-10-28T16:36:13;16.77;;;5.60;;
61017;SDS011;48171;51.550;5.434;2022-10-28T16:38:38;13.50;;;5.05;;
61017;SDS011;48171;51.550;5.434;2022-10-28T16:41:05;17.45;;;6.28;;
61017;SDS011;48171;51.550;5.434;2022-10-28T16:45:59;15.40;;;5.70;;
61017;SDS011;48171;51.550;5.434;2022-10-28T16:48:25;21.60;;;6.20;;
61017;SDS011;48171;51.550;5.434;2022-10-28T16:50:56;17.30;;;5.80;;
61017;SDS011;48171;51.550;5.434;2022-10-28T16:53:24;16.92;;;6.10;;
61017;SDS011;48171;51.550;5.434;2022-10-28T16:55:49;20.98;;;6.03;;
61017;SDS011;48171;51.550;5.434;2022-10-28T16:58:15;21.30;;;6.90;;
61017;SDS011;48171;51.550;5.434;2022-10-28T17:00:40;17.00;;;6.38;;
61017;SDS011;48171;51.550;5.434;2022-10-28T17:03:06;18.70;;;6.57;;
61017;SDS011;48171;51.550;5.434;2022-10-28T17:05:36;14.52;;;6.82;;
61017;SDS011;48171;51.550;5.434;2022-10-28T17:08:01;17.42;;;6.25;;
61017;SDS011;48171;51.550;5.434;2022-10-28T17:10:27;16.13;;;6.25;;
61017;SDS011;48171;51.550;5.434;2022-10-28T17:12:52;14.85;;;6.07;;
61017;SDS011;48171;51.550;5.434;2022-10-28T17:15:17;16.33;;;5.75;;
61017;SDS011;48171;51.550;5.434;2022-10-28T17:17:43;21.05;;;6.50;;
61017;SDS011;48171;51.550;5.434;2022-10-28T17:20:08;22.80;;;6.65;;
61017;SDS011;48171;51.550;5.434;2022-10-28T17:22:34;17.75;;;5.78;;
61017;SDS011;48171;51.550;5.434;2022-10-28T17:24:59;16.38;;;6.03;;
61017;SDS011;48171;51.550;5.434;2022-10-28T17:27:25;17.08;;;6.60;;
61017;SDS011;48171;51.550;5.434;2022-10-28T17:29:50;18.40;;;6.10;;
61017;SDS011;48171;51.550;5.434;2022-10-28T17:32:16;18.02;;;6.43;;
61017;SDS011;48171;51.550;5.434;2022-10-28T17:34:41;12.70;;;6.78;;
61017;SDS011;48171;51.550;5.434;2022-10-28T17:37:06;19.52;;;7.18;;
61017;SDS011;48171;51.550;5.434;2022-10-28T17:39:32;17.10;;;7.38;;
61017;SDS011;48171;51.550;5.434;2022-10-28T17:41:57;18.05;;;6.50;;
61017;SDS011;48171;51.550;5.434;2022-10-28T17:44:23;20.17;;;6.45;;
61017;SDS011;48171;51.550;5.434;2022-10-28T17:46:49;20.55;;;6.40;;
61017;SDS011;48171;51.550;5.434;2022-10-28T17:49:15;17.83;;;6.53;;
61017;SDS011;48171;51.550;5.434;2022-10-28T17:51:41;19.42;;;7.32;;
61017;SDS011;48171;51.550;5.434;2022-10-28T17:54:06;26.60;;;6.88;;
61017;SDS011;48171;51.550;5.434;2022-10-28T17:56:32;20.25;;;6.50;;
61017;SDS011;48171;51.550;5.434;2022-10-28T17:58:57;14.25;;;6.13;;
61017;SDS011;48171;51.550;5.434;2022-10-28T18:01:26;20.73;;;6.82;;
61017;SDS011;48171;51.550;5.434;2022-10-28T18:03:53;15.77;;;6.30;;
61017;SDS011;48171;51.550;5.434;2022-10-28T18:06:18;17.73;;;6.60;;
61017;SDS011;48171;51.550;5.434;2022-10-28T18:08:44;19.77;;;7.47;;
61017;SDS011;48171;51.550;5.434;2022-10-28T18:11:10;20.77;;;7.47;;
61017;SDS011;48171;51.550;5.434;2022-10-28T18:13:38;21.58;;;7.70;;